Milouin — FT9009 — position and weather

sailwx.info

Track history (hours):
 
Tides and Currents Weather Stations Pressure Air Temp Water Temp Dewpoint Dewpoint Depression Visibility Wind Speed Wind Dir Waves Ship Positions

Milouin

Last reported at 2015-Aug-02 09:30 UTC. Time now 2015-Aug-02 14:23 UTC.
Position N 47°18' W 002°06'.

Length 36 m; draft 2.5 m.

Type: Ship. MMSI: 227003190.

Date/timePositionNaut miles runAvg speedWind from/ knotsBaromVisibWave heightAir tempDewpointWater temp
2015-Aug-02 09:30N 47°18' W 002°06'0 0.1
2015-Aug-02 08:18N 47°18' W 002°06'0 0.2
2015-Aug-02 07:28N 47°18' W 002°06'0 0.0
2015-Aug-02 06:33N 47°18' W 002°06'0 0.1
2015-Aug-02 05:33N 47°18' W 002°06'3 1.5
2015-Aug-02 03:27N 47°17' W 002°01'0 0.0
2015-Aug-02 01:33N 47°17' W 002°01'0 0.0
2015-Aug-01 23:06N 47°17' W 002°01'0 0.0
2015-Aug-01 22:33N 47°17' W 002°01'4 0.3
2015-Aug-01 10:10N 47°18' W 002°07'1 0.4
2015-Aug-01 08:33N 47°18' W 002°06'1 1.2
2015-Aug-01 07:33N 47°18' W 002°08'1 0.8
2015-Aug-01 06:33N 47°18' W 002°07'0 0.2
2015-Aug-01 05:34N 47°18' W 002°06'4 0.8
2015-Aug-01 01:07N 47°17' W 002°01'7 0.4
2015-Jul-31 07:16N 47°16' W 002°12'0 0.3
2015-Jul-31 06:33N 47°16' W 002°11'4 3.8
2015-Jul-31 05:33N 47°18' W 002°07'4 0.2
2015-Jul-30 07:26N 47°16' W 002°12'4 2.1
2015-Jul-30 05:29N 47°18' W 002°07'3 0.2
2015-Jul-29 07:23N 47°16' W 002°11'1 0.7
2015-Jul-29 06:33N 47°17' W 002°10'2 2.0
2015-Jul-29 05:33N 47°18' W 002°08'3 0.2
2015-Jul-28 07:07N 47°18' W 002°03'2 0.1
2015-Jul-27 12:24N 47°17' W 002°01'0 0.0
2015-Jul-26 03:21N 47°17' W 002°01'0 0.0
2015-Jul-26 02:31N 47°17' W 002°01'0 0.0
2015-Jul-26 01:31N 47°17' W 002°01'0 0.0
2015-Jul-26 00:28N 47°17' W 002°01'0 0.0
2015-Jul-25 23:33N 47°17' W 002°01'0 0.0
2015-Jul-25 22:33N 47°17' W 002°01'0 0.0
2015-Jul-25 21:31N 47°17' W 002°01'0 0.0
2015-Jul-25 20:33N 47°17' W 002°01'0 0.0
2015-Jul-25 19:18N 47°17' W 002°01'2 0.1
2015-Jul-24 16:18N 47°17' W 001°58'6 0.7
2015-Jul-24 08:29N 47°14' W 001°51'7 7.3
2015-Jul-24 07:32N 47°17' W 002°00'1 0.8
2015-Jul-24 06:32N 47°17' W 002°01'0 0.0
2015-Jul-24 05:32N 47°17' W 002°01'0 0.0
2015-Jul-24 04:26N 47°17' W 002°01'0 0.0
2015-Jul-24 03:32N 47°17' W 002°01'0 0.0
2015-Jul-24 02:32N 47°17' W 002°01'0 0.0
2015-Jul-24 01:32N 47°17' W 002°01'0 0.0
2015-Jul-24 00:32N 47°17' W 002°01'0 0.0
2015-Jul-23 23:32N 47°17' W 002°01'0 0.0
2015-Jul-23 22:32N 47°17' W 002°01'0 0.0
2015-Jul-23 21:32N 47°17' W 002°01'0 0.0
2015-Jul-23 20:17N 47°17' W 002°01'0 0.0
2015-Jul-23 19:29N 47°17' W 002°01'0 0.0
2015-Jul-23 18:32N 47°17' W 002°01'0 0.0
2015-Jul-23 16:29N 47°17' W 002°01'0 0.0
2015-Jul-23 15:32N 47°17' W 002°01'4 1.5
2015-Jul-23 13:08N 47°18' W 002°06'0 0.1
2015-Jul-23 11:31N 47°18' W 002°06'  
Track history (hours):
 
Tides and Currents Weather Stations Pressure Air Temp Water Temp Dewpoint Dewpoint Depression Visibility Wind Speed Wind Dir Waves Ship Positions

Milouin

Last reported at 2015-Aug-02 09:30 UTC. Time now 2015-Aug-02 14:23 UTC.
Position N 47°18' W 002°06'.

Length 36 m; draft 2.5 m.

Type: Ship. MMSI: 227003190.

Date/timePositionNaut miles runAvg speedWind from/ knotsBaromVisibWave heightAir tempDewpointWater temp
2015-Aug-02 09:30N 47°18' W 002°06'0 0.1
2015-Aug-02 08:18N 47°18' W 002°06'0 0.2
2015-Aug-02 07:28N 47°18' W 002°06'0 0.0
2015-Aug-02 06:33N 47°18' W 002°06'0 0.1
2015-Aug-02 05:33N 47°18' W 002°06'3 1.5
2015-Aug-02 03:27N 47°17' W 002°01'0 0.0
2015-Aug-02 01:33N 47°17' W 002°01'0 0.0
2015-Aug-01 23:06N 47°17' W 002°01'0 0.0
2015-Aug-01 22:33N 47°17' W 002°01'4 0.3
2015-Aug-01 10:10N 47°18' W 002°07'1 0.4
2015-Aug-01 08:33N 47°18' W 002°06'1 1.2
2015-Aug-01 07:33N 47°18' W 002°08'1 0.8
2015-Aug-01 06:33N 47°18' W 002°07'0 0.2
2015-Aug-01 05:34N 47°18' W 002°06'4 0.8
2015-Aug-01 01:07N 47°17' W 002°01'7 0.4
2015-Jul-31 07:16N 47°16' W 002°12'0 0.3
2015-Jul-31 06:33N 47°16' W 002°11'4 3.8
2015-Jul-31 05:33N 47°18' W 002°07'4 0.2
2015-Jul-30 07:26N 47°16' W 002°12'4 2.1
2015-Jul-30 05:29N 47°18' W 002°07'3 0.2
2015-Jul-29 07:23N 47°16' W 002°11'1 0.7
2015-Jul-29 06:33N 47°17' W 002°10'2 2.0
2015-Jul-29 05:33N 47°18' W 002°08'3 0.2
2015-Jul-28 07:07N 47°18' W 002°03'2 0.1
2015-Jul-27 12:24N 47°17' W 002°01'0 0.0
2015-Jul-26 03:21N 47°17' W 002°01'0 0.0
2015-Jul-26 02:31N 47°17' W 002°01'0 0.0
2015-Jul-26 01:31N 47°17' W 002°01'0 0.0
2015-Jul-26 00:28N 47°17' W 002°01'0 0.0
2015-Jul-25 23:33N 47°17' W 002°01'0 0.0
2015-Jul-25 22:33N 47°17' W 002°01'0 0.0
2015-Jul-25 21:31N 47°17' W 002°01'0 0.0
2015-Jul-25 20:33N 47°17' W 002°01'0 0.0
2015-Jul-25 19:18N 47°17' W 002°01'2 0.1
2015-Jul-24 16:18N 47°17' W 001°58'6 0.7
2015-Jul-24 08:29N 47°14' W 001°51'7 7.3
2015-Jul-24 07:32N 47°17' W 002°00'1 0.8
2015-Jul-24 06:32N 47°17' W 002°01'0 0.0
2015-Jul-24 05:32N 47°17' W 002°01'0 0.0
2015-Jul-24 04:26N 47°17' W 002°01'0 0.0
2015-Jul-24 03:32N 47°17' W 002°01'0 0.0
2015-Jul-24 02:32N 47°17' W 002°01'0 0.0
2015-Jul-24 01:32N 47°17' W 002°01'0 0.0
2015-Jul-24 00:32N 47°17' W 002°01'0 0.0
2015-Jul-23 23:32N 47°17' W 002°01'0 0.0
2015-Jul-23 22:32N 47°17' W 002°01'0 0.0
2015-Jul-23 21:32N 47°17' W 002°01'0 0.0
2015-Jul-23 20:17N 47°17' W 002°01'0 0.0
2015-Jul-23 19:29N 47°17' W 002°01'0 0.0
2015-Jul-23 18:32N 47°17' W 002°01'0 0.0
2015-Jul-23 16:29N 47°17' W 002°01'0 0.0
2015-Jul-23 15:32N 47°17' W 002°01'4 1.5
2015-Jul-23 13:08N 47°18' W 002°06'0 0.1
2015-Jul-23 11:31N 47°18' W 002°06'  

Dump ship's entire track history